Greenville Downtown Airport Greenville US
ICAO: KGMU
IATA: GMU
Category: Medium
Scheduled Services: No

Elevation: 1048 ft
TransAlt. 18000 ft.

Airport Communications:
GREER APP/DEP:118.8
ASOS:127.075
CTAF:119.9
GND:121.25
TWR:119.9
UNICOM:122.95

KGMU Zoom In..

Runways:

(A) RW 01 length 5393 ft width 100 ft
ILS 109.70 / hdg 6

(B) RW 10 length 4000 ft width 80 ft
---- / hdg 96

(C) RW 19 length 5393 ft width 100 ft
---- / hdg 186

(D) RW 28 length 4000 ft width 80 ft
---- / hdg 276

Location; KGMU
Day. 16 / Time. 18.18 Zulu
* Altimeter: 30.05
* Temperature: 29° c. 84.2°f.
* Wind from: 200° Speed 07 kn.
Dewpoint: 25° c.
Visibility: 10 Statute Miles.
Clouds: Few 1700 ft.
Clouds: Scattered 5000 ft.
Clouds: Broken 1000 ft.
Conditions: Thunderstorm.

KGMU 161818Z 20007KT 10SM TS FEW017 SCT050 BKN100 29/25 A3005 RMK AO2 LTG DSNT NE AND SE AND NW RAE09 TSB12 P0007 T02890250


Wind From 200°
Speed 07 kn.

 
 
jpsmedia.com for Web Design worldairports.se 2018   terms of use